<?xml version="1.0" encoding="UTF-8" standalone="no" ?>
<gpx xmlns="http://www.topografix.com/GPX/1/1" xmlns:xsi="http://www.w3.org/2001/XMLSchema-instance" xsi:schemaLocation="http://www.topografix.com/GPX/1/1 http://www.topografix.com/GPX/1/1/gpx.xsd" version="1.1" creator="VisuGPX - https://www.visugpx.com">
  <metadata>
    <name>Argentina</name>
    <desc><![CDATA[Downloaded from eMap Software Version 2.75]]></desc>
  </metadata>
  <trk>
    <name><![CDATA[Argentina_12]]></name>
    <extensions>
      <line xmlns="http://www.topografix.com/GPX/gpx_style/0/2">
        <color>ff0000</color>
        <opacity>0.78</opacity>
        <width>0.6000</width>
      </line>
    </extensions>
    <trkseg>
      <trkpt lat="-27.09977" lon="-65.63758">
        <ele>601.441895</ele>
        <time>2005-12-11T17:44:24Z</time>
      </trkpt>
      <trkpt lat="-27.09982" lon="-65.63713">
        <ele>607.209961</ele>
        <time>2005-12-11T17:44:26Z</time>
      </trkpt>
      <trkpt lat="-27.09947" lon="-65.63546">
        <ele>618.264893</ele>
        <time>2005-12-11T17:44:34Z</time>
      </trkpt>
      <trkpt lat="-27.09872" lon="-65.63247">
        <ele>605.768066</ele>
        <time>2005-12-11T17:44:48Z</time>
      </trkpt>
      <trkpt lat="-27.09817" lon="-65.62975">
        <ele>599.038574</ele>
        <time>2005-12-11T17:45:02Z</time>
      </trkpt>
      <trkpt lat="-27.09761" lon="-65.62647">
        <ele>590.386963</ele>
        <time>2005-12-11T17:45:23Z</time>
      </trkpt>
      <trkpt lat="-27.09696" lon="-65.62402">
        <ele>590.867432</ele>
        <time>2005-12-11T17:45:41Z</time>
      </trkpt>
      <trkpt lat="-27.09675" lon="-65.62329">
        <ele>590.386963</ele>
        <time>2005-12-11T17:45:47Z</time>
      </trkpt>
      <trkpt lat="-27.09671" lon="-65.6231">
        <ele>590.867432</ele>
        <time>2005-12-11T17:45:55Z</time>
      </trkpt>
      <trkpt lat="-27.09688" lon="-65.62327">
        <ele>577.40918</ele>
        <time>2005-12-11T17:49:35Z</time>
      </trkpt>
      <trkpt lat="-27.09668" lon="-65.62263">
        <ele>577.40918</ele>
        <time>2005-12-11T17:49:43Z</time>
      </trkpt>
      <trkpt lat="-27.09628" lon="-65.62134">
        <ele>577.40918</ele>
        <time>2005-12-11T17:49:56Z</time>
      </trkpt>
      <trkpt lat="-27.09492" lon="-65.61791">
        <ele>574.044434</ele>
        <time>2005-12-11T17:50:09Z</time>
      </trkpt>
      <trkpt lat="-27.09488" lon="-65.61771">
        <ele>573.083252</ele>
        <time>2005-12-11T17:50:10Z</time>
      </trkpt>
      <trkpt lat="-27.09501" lon="-65.61634">
        <ele>564.431152</ele>
        <time>2005-12-11T17:50:17Z</time>
      </trkpt>
      <trkpt lat="-27.0954" lon="-65.61419">
        <ele>554.817871</ele>
        <time>2005-12-11T17:50:26Z</time>
      </trkpt>
      <trkpt lat="-27.09574" lon="-65.61215">
        <ele>552.414551</ele>
        <time>2005-12-11T17:50:35Z</time>
      </trkpt>
      <trkpt lat="-27.09595" lon="-65.6093">
        <ele>542.801514</ele>
        <time>2005-12-11T17:50:48Z</time>
      </trkpt>
      <trkpt lat="-27.09664" lon="-65.60765">
        <ele>538.475708</ele>
        <time>2005-12-11T17:50:56Z</time>
      </trkpt>
      <trkpt lat="-27.09714" lon="-65.60703">
        <ele>535.591553</ele>
        <time>2005-12-11T17:51:00Z</time>
      </trkpt>
      <trkpt lat="-27.09746" lon="-65.6061">
        <ele>532.227051</ele>
        <time>2005-12-11T17:51:05Z</time>
      </trkpt>
      <trkpt lat="-27.09789" lon="-65.60286">
        <ele>526.939819</ele>
        <time>2005-12-11T17:51:19Z</time>
      </trkpt>
      <trkpt lat="-27.09806" lon="-65.59922">
        <ele>516.365234</ele>
        <time>2005-12-11T17:51:34Z</time>
      </trkpt>
      <trkpt lat="-27.09821" lon="-65.59763">
        <ele>520.210571</ele>
        <time>2005-12-11T17:51:41Z</time>
      </trkpt>
      <trkpt lat="-27.09823" lon="-65.59686">
        <ele>522.133179</ele>
        <time>2005-12-11T17:51:45Z</time>
      </trkpt>
      <trkpt lat="-27.09857" lon="-65.59522">
        <ele>515.884644</ele>
        <time>2005-12-11T17:51:53Z</time>
      </trkpt>
      <trkpt lat="-27.09857" lon="-65.59434">
        <ele>513.481445</ele>
        <time>2005-12-11T17:51:57Z</time>
      </trkpt>
      <trkpt lat="-27.09945" lon="-65.59171">
        <ele>507.713501</ele>
        <time>2005-12-11T17:52:10Z</time>
      </trkpt>
      <trkpt lat="-27.10027" lon="-65.5896">
        <ele>503.868164</ele>
        <time>2005-12-11T17:52:20Z</time>
      </trkpt>
      <trkpt lat="-27.10076" lon="-65.58653">
        <ele>503.387451</ele>
        <time>2005-12-11T17:52:33Z</time>
      </trkpt>
      <trkpt lat="-27.1011" lon="-65.58467">
        <ele>500.022949</ele>
        <time>2005-12-11T17:52:41Z</time>
      </trkpt>
      <trkpt lat="-27.10213" lon="-65.58175">
        <ele>484.161133</ele>
        <time>2005-12-11T17:52:54Z</time>
      </trkpt>
      <trkpt lat="-27.10336" lon="-65.57988">
        <ele>475.028687</ele>
        <time>2005-12-11T17:53:04Z</time>
      </trkpt>
      <trkpt lat="-27.10357" lon="-65.57952">
        <ele>473.106079</ele>
        <time>2005-12-11T17:53:06Z</time>
      </trkpt>
      <trkpt lat="-27.10381" lon="-65.57872">
        <ele>470.221924</ele>
        <time>2005-12-11T17:53:10Z</time>
      </trkpt>
      <trkpt lat="-27.10417" lon="-65.57538">
        <ele>455.802246</ele>
        <time>2005-12-11T17:53:25Z</time>
      </trkpt>
      <trkpt lat="-27.10428" lon="-65.57424">
        <ele>452.918213</ele>
        <time>2005-12-11T17:53:33Z</time>
      </trkpt>
      <trkpt lat="-27.10426" lon="-65.5742">
        <ele>452.437622</ele>
        <time>2005-12-11T17:53:35Z</time>
      </trkpt>
      <trkpt lat="-27.10407" lon="-65.5736">
        <ele>449.072998</ele>
        <time>2005-12-11T17:53:42Z</time>
      </trkpt>
      <trkpt lat="-27.104" lon="-65.57347">
        <ele>449.072998</ele>
        <time>2005-12-11T17:53:43Z</time>
      </trkpt>
      <trkpt lat="-27.1031" lon="-65.57235">
        <ele>442.824463</ele>
        <time>2005-12-11T17:53:51Z</time>
      </trkpt>
      <trkpt lat="-27.10128" lon="-65.57025">
        <ele>435.133911</ele>
        <time>2005-12-11T17:54:03Z</time>
      </trkpt>
      <trkpt lat="-27.09677" lon="-65.56501">
        <ele>429.846558</ele>
        <time>2005-12-11T17:54:30Z</time>
      </trkpt>
      <trkpt lat="-27.09568" lon="-65.56342">
        <ele>429.846558</ele>
        <time>2005-12-11T17:54:39Z</time>
      </trkpt>
      <trkpt lat="-27.09516" lon="-65.56289">
        <ele>427.92395</ele>
        <time>2005-12-11T17:54:43Z</time>
      </trkpt>
      <trkpt lat="-27.09417" lon="-65.56229">
        <ele>424.078735</ele>
        <time>2005-12-11T17:54:51Z</time>
      </trkpt>
      <trkpt lat="-27.09402" lon="-65.56224">
        <ele>422.636719</ele>
        <time>2005-12-11T17:54:54Z</time>
      </trkpt>
      <trkpt lat="-27.09347" lon="-65.56188">
        <ele>418.310791</ele>
        <time>2005-12-11T17:55:01Z</time>
      </trkpt>
      <trkpt lat="-27.09306" lon="-65.56109">
        <ele>416.868896</ele>
        <time>2005-12-11T17:55:07Z</time>
      </trkpt>
      <trkpt lat="-27.09274" lon="-65.55915">
        <ele>413.504272</ele>
        <time>2005-12-11T17:55:16Z</time>
      </trkpt>
      <trkpt lat="-27.09184" lon="-65.55396">
        <ele>410.139648</ele>
        <time>2005-12-11T17:55:37Z</time>
      </trkpt>
      <trkpt lat="-27.09145" lon="-65.55175">
        <ele>407.736328</ele>
        <time>2005-12-11T17:55:47Z</time>
      </trkpt>
      <trkpt lat="-27.09104" lon="-65.54892">
        <ele>405.333008</ele>
        <time>2005-12-11T17:55:59Z</time>
      </trkpt>
      <trkpt lat="-27.09265" lon="-65.54731">
        <ele>403.4104</ele>
        <time>2005-12-11T17:56:07Z</time>
      </trkpt>
      <trkpt lat="-27.0952" lon="-65.54362">
        <ele>398.60376</ele>
        <time>2005-12-11T17:56:25Z</time>
      </trkpt>
      <trkpt lat="-27.09634" lon="-65.54199">
        <ele>396.200562</ele>
        <time>2005-12-11T17:56:34Z</time>
      </trkpt>
      <trkpt lat="-27.09857" lon="-65.53873">
        <ele>393.316528</ele>
        <time>2005-12-11T17:56:51Z</time>
      </trkpt>
      <trkpt lat="-27.09947" lon="-65.53712">
        <ele>392.355347</ele>
        <time>2005-12-11T17:56:59Z</time>
      </trkpt>
      <trkpt lat="-27.0998" lon="-65.53536">
        <ele>391.874512</ele>
        <time>2005-12-11T17:57:07Z</time>
      </trkpt>
      <trkpt lat="-27.10033" lon="-65.5319">
        <ele>388.990601</ele>
        <time>2005-12-11T17:57:22Z</time>
      </trkpt>
      <trkpt lat="-27.10108" lon="-65.52699">
        <ele>386.587402</ele>
        <time>2005-12-11T17:57:40Z</time>
      </trkpt>
      <trkpt lat="-27.10216" lon="-65.5201">
        <ele>382.261353</ele>
        <time>2005-12-11T17:58:05Z</time>
      </trkpt>
      <trkpt lat="-27.10246" lon="-65.5183">
        <ele>382.261353</ele>
        <time>2005-12-11T17:58:12Z</time>
      </trkpt>
      <trkpt lat="-27.10319" lon="-65.5162">
        <ele>385.145386</ele>
        <time>2005-12-11T17:58:22Z</time>
      </trkpt>
      <trkpt lat="-27.10462" lon="-65.51321">
        <ele>383.703247</ele>
        <time>2005-12-11T17:58:36Z</time>
      </trkpt>
      <trkpt lat="-27.10737" lon="-65.50757">
        <ele>384.664795</ele>
        <time>2005-12-11T17:59:00Z</time>
      </trkpt>
      <trkpt lat="-27.10945" lon="-65.50328">
        <ele>382.742065</ele>
        <time>2005-12-11T17:59:17Z</time>
      </trkpt>
      <trkpt lat="-27.11267" lon="-65.49628">
        <ele>376.49353</ele>
        <time>2005-12-11T17:59:45Z</time>
      </trkpt>
      <trkpt lat="-27.11404" lon="-65.49238">
        <ele>372.648193</ele>
        <time>2005-12-11T18:00:01Z</time>
      </trkpt>
      <trkpt lat="-27.116" lon="-65.48849">
        <ele>370.725586</ele>
        <time>2005-12-11T18:00:18Z</time>
      </trkpt>
      <trkpt lat="-27.11825" lon="-65.48446">
        <ele>367.360962</ele>
        <time>2005-12-11T18:00:36Z</time>
      </trkpt>
      <trkpt lat="-27.12067" lon="-65.4804">
        <ele>363.035034</ele>
        <time>2005-12-11T18:00:54Z</time>
      </trkpt>
      <trkpt lat="-27.1234" lon="-65.47444">
        <ele>359.67041</ele>
        <time>2005-12-11T18:01:18Z</time>
      </trkpt>
      <trkpt lat="-27.12499" lon="-65.47096">
        <ele>364.957642</ele>
        <time>2005-12-11T18:01:33Z</time>
      </trkpt>
      <trkpt lat="-27.12552" lon="-65.46976">
        <ele>360.631714</ele>
        <time>2005-12-11T18:01:40Z</time>
      </trkpt>
      <trkpt lat="-27.12563" lon="-65.46914">
        <ele>359.189697</ele>
        <time>2005-12-11T18:01:44Z</time>
      </trkpt>
      <trkpt lat="-27.1252" lon="-65.46794">
        <ele>356.305786</ele>
        <time>2005-12-11T18:01:55Z</time>
      </trkpt>
      <trkpt lat="-27.1246" lon="-65.46714">
        <ele>356.786377</ele>
        <time>2005-12-11T18:02:02Z</time>
      </trkpt>
      <trkpt lat="-27.12361" lon="-65.4659">
        <ele>357.26709</ele>
        <time>2005-12-11T18:02:10Z</time>
      </trkpt>
      <trkpt lat="-27.12177" lon="-65.46354">
        <ele>357.747803</ele>
        <time>2005-12-11T18:02:23Z</time>
      </trkpt>
      <trkpt lat="-27.1175" lon="-65.45809">
        <ele>355.344482</ele>
        <time>2005-12-11T18:02:52Z</time>
      </trkpt>
      <trkpt lat="-27.11445" lon="-65.45412">
        <ele>355.825195</ele>
        <time>2005-12-11T18:03:12Z</time>
      </trkpt>
      <trkpt lat="-27.11074" lon="-65.44931">
        <ele>352.941162</ele>
        <time>2005-12-11T18:03:35Z</time>
      </trkpt>
      <trkpt lat="-27.10696" lon="-65.44455">
        <ele>353.902588</ele>
        <time>2005-12-11T18:03:58Z</time>
      </trkpt>
      <trkpt lat="-27.1049" lon="-65.44245">
        <ele>352.460571</ele>
        <time>2005-12-11T18:04:09Z</time>
      </trkpt>
      <trkpt lat="-27.09937" lon="-65.43704">
        <ele>352.941162</ele>
        <time>2005-12-11T18:04:37Z</time>
      </trkpt>
      <trkpt lat="-27.09527" lon="-65.43346">
        <ele>354.86377</ele>
        <time>2005-12-11T18:04:58Z</time>
      </trkpt>
      <trkpt lat="-27.09087" lon="-65.42985">
        <ele>355.825195</ele>
        <time>2005-12-11T18:05:20Z</time>
      </trkpt>
      <trkpt lat="-27.08866" lon="-65.42768">
        <ele>356.305786</ele>
        <time>2005-12-11T18:05:32Z</time>
      </trkpt>
      <trkpt lat="-27.08711" lon="-65.42594">
        <ele>356.305786</ele>
        <time>2005-12-11T18:05:42Z</time>
      </trkpt>
      <trkpt lat="-27.08323" lon="-65.42155">
        <ele>355.825195</ele>
        <time>2005-12-11T18:06:08Z</time>
      </trkpt>
      <trkpt lat="-27.08098" lon="-65.41899">
        <ele>355.344482</ele>
        <time>2005-12-11T18:06:25Z</time>
      </trkpt>
      <trkpt lat="-27.07902" lon="-65.4168">
        <ele>359.189697</ele>
        <time>2005-12-11T18:06:37Z</time>
      </trkpt>
      <trkpt lat="-27.07443" lon="-65.41159">
        <ele>359.67041</ele>
        <time>2005-12-11T18:07:04Z</time>
      </trkpt>
      <trkpt lat="-27.0722" lon="-65.40906">
        <ele>360.151123</ele>
        <time>2005-12-11T18:07:18Z</time>
      </trkpt>
      <trkpt lat="-27.068" lon="-65.40432">
        <ele>363.035034</ele>
        <time>2005-12-11T18:07:44Z</time>
      </trkpt>
      <trkpt lat="-27.06591" lon="-65.40198">
        <ele>361.59314</ele>
        <time>2005-12-11T18:07:59Z</time>
      </trkpt>
      <trkpt lat="-27.06546" lon="-65.40148">
        <ele>362.07373</ele>
        <time>2005-12-11T18:08:06Z</time>
      </trkpt>
      <trkpt lat="-27.06536" lon="-65.40135">
        <ele>363.515747</ele>
        <time>2005-12-11T18:08:13Z</time>
      </trkpt>
      <trkpt lat="-27.06536" lon="-65.40135">
        <ele>361.112427</ele>
        <time>2005-12-11T18:08:49Z</time>
      </trkpt>
      <trkpt lat="-27.06516" lon="-65.40112">
        <ele>358.708984</ele>
        <time>2005-12-11T18:09:29Z</time>
      </trkpt>
      <trkpt lat="-27.06439" lon="-65.40022">
        <ele>359.189697</ele>
        <time>2005-12-11T18:09:41Z</time>
      </trkpt>
      <trkpt lat="-27.06403" lon="-65.39981">
        <ele>359.189697</ele>
        <time>2005-12-11T18:09:47Z</time>
      </trkpt>
      <trkpt lat="-27.06394" lon="-65.39944">
        <ele>358.708984</ele>
        <time>2005-12-11T18:09:56Z</time>
      </trkpt>
      <trkpt lat="-27.0639" lon="-65.39932">
        <ele>359.189697</ele>
        <time>2005-12-11T18:10:00Z</time>
      </trkpt>
      <trkpt lat="-27.0639" lon="-65.39929">
        <ele>359.189697</ele>
        <time>2005-12-11T18:10:03Z</time>
      </trkpt>
      <trkpt lat="-27.06398" lon="-65.39914">
        <ele>359.67041</ele>
        <time>2005-12-11T18:10:09Z</time>
      </trkpt>
      <trkpt lat="-27.06398" lon="-65.39914">
        <ele>353.421875</ele>
        <time>2005-12-11T18:10:21Z</time>
      </trkpt>
      <trkpt lat="-27.064" lon="-65.39925">
        <ele>357.26709</ele>
        <time>2005-12-11T18:11:39Z</time>
      </trkpt>
    </trkseg>
  </trk>
</gpx>